地図

経路データ

SID SEASON NUMBER BASIN SUBBASIN NAME ISO_TIME NATURE LAT LON WMO_WIND WMO_PRES WMO_AGENCY TRACK_TYPE DIST2LAND LANDFALL IFLAG USA_AGENCY USA_ATCF_ID USA_LAT USA_LON USA_RECORD USA_STATUS USA_WIND USA_PRES USA_SSHS USA_R34_NE USA_R34_SE USA_R34_SW USA_R34_NW USA_R50_NE USA_R50_SE USA_R50_SW USA_R50_NW USA_R64_NE USA_R64_SE USA_R64_SW USA_R64_NW USA_POCI USA_ROCI USA_RMW USA_EYE TOKYO_LAT TOKYO_LON TOKYO_GRADE TOKYO_WIND TOKYO_PRES TOKYO_R50_DIR TOKYO_R50_LONG TOKYO_R50_SHORT TOKYO_R30_DIR TOKYO_R30_LONG TOKYO_R30_SHORT TOKYO_LAND CMA_LAT CMA_LON CMA_CAT CMA_WIND CMA_PRES HKO_LAT HKO_LON HKO_CAT HKO_WIND HKO_PRES NEWDELHI_LAT NEWDELHI_LON NEWDELHI_GRADE NEWDELHI_WIND NEWDELHI_PRES NEWDELHI_CI NEWDELHI_DP NEWDELHI_POCI REUNION_LAT REUNION_LON REUNION_TYPE REUNION_WIND REUNION_PRES REUNION_TNUM REUNION_CI REUNION_RMW REUNION_R34_NE REUNION_R34_SE REUNION_R34_SW REUNION_R34_NW REUNION_R50_NE REUNION_R50_SE REUNION_R50_SW REUNION_R50_NW REUNION_R64_NE REUNION_R64_SE REUNION_R64_SW REUNION_R64_NW BOM_LAT BOM_LON BOM_TYPE BOM_WIND BOM_PRES BOM_TNUM BOM_CI BOM_RMW BOM_R34_NE BOM_R34_SE BOM_R34_SW BOM_R34_NW BOM_R50_NE BOM_R50_SE BOM_R50_SW BOM_R50_NW BOM_R64_NE BOM_R64_SE BOM_R64_SW BOM_R64_NW BOM_ROCI BOM_POCI BOM_EYE BOM_POS_METHOD BOM_PRES_METHOD NADI_LAT NADI_LON NADI_CAT NADI_WIND NADI_PRES WELLINGTON_LAT WELLINGTON_LON WELLINGTON_WIND WELLINGTON_PRES DS824_LAT DS824_LON DS824_STAGE DS824_WIND DS824_PRES TD9636_LAT TD9636_LON TD9636_STAGE TD9636_WIND TD9636_PRES TD9635_LAT TD9635_LON TD9635_WIND TD9635_PRES TD9635_ROCI NEUMANN_LAT NEUMANN_LON NEUMANN_CLASS NEUMANN_WIND NEUMANN_PRES MLC_LAT MLC_LON MLC_CLASS MLC_WIND MLC_PRES USA_GUST BOM_GUST BOM_GUST_PER REUNION_GUST REUNION_GUST_PER USA_SEAHGT USA_SEARAD_NE USA_SEARAD_SE USA_SEARAD_SW USA_SEARAD_NW STORM_SPEED STORM_DIR
2006300N07078 2006 86 NI BB NOT_NAMED 2006-10-27 06:00:00 NR 7.40000 78.1000 main 99 46 O_____________ jtwc_io IO062006 7.40000 78.1000 DB 15 1006 -3 13 10
2006300N07078 2006 86 NI BB NOT_NAMED 2006-10-27 09:00:00 NR 8.02747 78.2075 main 46 22 P_____________ IO062006 8.02747 78.2075 DB 15 1006 -3 12 14
2006300N07078 2006 86 NI BB NOT_NAMED 2006-10-27 12:00:00 NR 8.60000 78.4000 main 33 11 O_____________ jtwc_io IO062006 8.60000 78.4000 DB 15 1006 -3 12 26
2006300N07078 2006 86 NI BB NOT_NAMED 2006-10-27 15:00:00 NR 9.08004 78.7275 main 11 0 P_____________ IO062006 9.08004 78.7275 DB 15 1006 -3 11 37
2006300N07078 2006 86 NI BB NOT_NAMED 2006-10-27 18:00:00 NR 9.50000 79.1000 main 21 15 O_____________ jtwc_io IO062006 9.50000 79.1000 DB 15 1006 -3 11 41
2006300N07078 2006 86 NI BB NOT_NAMED 2006-10-27 21:00:00 NR 9.90001 79.4375 main 15 10 P_____________ IO062006 9.90001 79.4375 DB 15 1006 -3 10 36
2006300N07078 2006 86 NI BB NOT_NAMED 2006-10-28 00:00:00 NR 10.3000 79.7000 main 10 0 O_____________ jtwc_io IO062006 10.3000 79.7000 DB 15 1006 -3 9 24
2006300N07078 2006 86 NI BB NOT_NAMED 2006-10-28 03:00:00 NR 10.7349 79.8227 main 0 0 P_____________ IO062006 10.7349 79.8227 DB 17 1005 -3 9 12
2006300N07078 2006 86 NI BB NOT_NAMED 2006-10-28 06:00:00 NR 11.2000 79.9000 main 0 0 O_____________ jtwc_io IO062006 11.2000 79.9000 DB 20 1004 -3 10 13
2006300N07078 2006 86 NI BB NOT_NAMED 2006-10-28 09:00:00 NR 11.7000 80.0500 main 21 21 P_____________ IO062006 11.7000 80.0500 DB 20 1004 -3 10 16
2006300N07078 2006 86 NI BB NOT_NAMED 2006-10-28 12:00:00 NR 12.2000 80.2000 main 21 10 O_____________ jtwc_io IO062006 12.2000 80.2000 DB 20 1004 -3 10 15
2006300N07078 2006 86 NI BB NOT_NAMED 2006-10-28 15:00:00 NR 12.6425 80.3150 main 10 10 P_____________ IO062006 12.6425 80.3150 DB 22 1003 -3 9 12
2006300N07078 2006 86 NI BB NOT_NAMED 2006-10-28 18:00:00 NR 13.1000 80.4000 main 21 10 O_____________ jtwc_io IO062006 13.1000 80.4000 DB 25 1002 -3 10 8
2006300N07078 2006 86 NI BB NOT_NAMED 2006-10-28 21:00:00 NR 13.6725 80.4650 main 21 21 P_____________ IO062006 13.6725 80.4650 DB 27 1001 -3 11 5
2006300N07078 2006 86 NI BB NOT_NAMED 2006-10-29 00:00:00 NR 14.1600 80.5000 25 1002 newdelhi main 43 34 O___O_________ jtwc_io IO062006 14.2000 80.5000 DB 30 1000 -3 14.0000 80.5000 D 25 1002 1.50000 9 2
2006300N07078 2006 86 NI BB NOT_NAMED 2006-10-29 03:00:00 NR 14.5350 80.5050 25 1002 newdelhi main 34 32 P___O_________ IO062006 14.5525 80.5075 DB 35 997 -3 30 30 22 22 14.5000 80.5000 D 25 1002 1.50000 5 0
2006300N07078 2006 86 NI BB NOT_NAMED 2006-10-29 06:00:00 TS 14.6714 80.5000 25 1002 newdelhi main 34 34 O___O_________ jtwc_io IO062006 14.8000 80.5000 TC 40 994 0 60 60 45 45 14.5000 80.5000 D 25 1002 1.50000 5 358
2006300N07078 2006 86 NI BB NOT_NAMED 2006-10-29 09:00:00 TS 15.0112 80.5037 30 1000 newdelhi main 48 48 P___O_________ IO062006 15.0225 80.5075 TC 45 990 0 60 60 45 45 15.0000 80.5000 DD 30 1000 2.00000 5 4 0
2006300N07078 2006 86 NI BB NOT_NAMED 2006-10-29 12:00:00 TS 15.1000 80.5000 35 998 newdelhi main 48 44 O___O_________ jtwc_io IO062006 15.2000 80.5000 TC 50 987 0 60 60 45 45 15.0000 80.5000 CS 35 998 2.50000 6 2 353
2006300N07078 2006 86 NI BB NOT_NAMED 2006-10-29 15:00:00 TS 15.1825 80.4788 35 998 newdelhi main 44 30 P___O_________ IO062006 15.3650 80.4575 TC 52 985 0 60 60 45 45 15.0000 80.5000 CS 35 998 2.50000 6 4 355
2006300N07078 2006 86 NI BB NOT_NAMED 2006-10-29 18:00:00 TS 15.5000 80.4500 35 998 newdelhi main 30 15 O___O_________ jtwc_io IO062006 15.5000 80.4000 TC 55 984 0 60 60 45 45 25 25 20 20 15.5000 80.5000 CS 35 998 2.50000 6 4 354
2006300N07078 2006 86 NI BB NOT_NAMED 2006-10-29 21:00:00 TS 15.5537 80.4287 35 998 newdelhi main 15 15 P___O_________ IO062006 15.6075 80.3575 TC 52 985 0 57 60 40 40 22 25 17 17 15.5000 80.5000 CS 35 998 2.50000 5 1 343
2006300N07078 2006 86 NI BB NOT_NAMED 2006-10-30 00:00:00 TS 15.6000 80.4000 35 998 newdelhi main 15 0 O___O_________ jtwc_io IO062006 15.7000 80.3000 TC 50 987 0 55 60 35 35 20 25 15 15 15.5000 80.5000 CS 35 998 2.50000 6 2 313
2006300N07078 2006 86 NI BB NOT_NAMED 2006-10-30 03:00:00 TS 15.7186 80.2471 35 1000 newdelhi main 0 0 P___O_________ IO062006 15.8075 80.2075 TC 45 990 0 55 60 35 35 15.6000 80.3000 CS 35 1000 2.50000 6 3 316
2006300N07078 2006 86 NI BB NOT_NAMED 2006-10-30 06:00:00 TS 15.8200 80.1800 30 1002 newdelhi main 0 0 O___O_________ jtwc_io IO062006 15.9000 80.1000 TC 40 994 0 55 60 35 35 15.7000 80.3000 DD 30 1002 2.00000 6 2 322
2006300N07078 2006 86 NI BB NOT_NAMED 2006-10-30 09:00:00 TS 15.9067 80.0983 25 1004 newdelhi main 0 0 P___O_________ IO062006 15.9600 79.9975 TC 35 997 0 27 30 17 17 15.8000 80.3000 D 25 1004 0.00000 8 3 304
2006300N07078 2006 86 NI BB NOT_NAMED 2006-10-30 12:00:00 NR 16.0000 79.9000 main 0 O_____________ jtwc_io IO062006 16.0000 79.9000 DB 30 1000 -3 4 296

IBTrACS Databaseについて

本データベースは、米国NOAAが公開する1842年以降の世界の熱帯低気圧のベストトラックデータアーカイブInternational Best Track Archive for Climate Stewardship (IBTrACS)を、ウェブで閲覧しやすい形式に変換したものです。

最終更新日:2021-12-06